createdAt,value
2018-12-19T00:02:18.054Z,97620.00
2018-12-19T00:05:25.629Z,97609.02
2018-12-19T00:08:31.979Z,97596.83
2018-12-19T00:11:37.550Z,97591.33
2018-12-19T00:14:43.354Z,97593.05
2018-12-19T00:17:51.050Z,97590.08
2018-12-19T00:20:56.678Z,97579.98
2018-12-19T00:24:02.528Z,97573.66
2018-12-19T00:27:08.488Z,97567.34
2018-12-19T00:30:16.077Z,97569.86
2018-12-19T00:33:23.700Z,97571.58
2018-12-19T00:36:29.609Z,97566.94
2018-12-19T00:39:35.378Z,97554.30
2018-12-19T00:42:41.220Z,97547.97
2018-12-19T00:45:47.464Z,97547.10
2018-12-19T00:48:53.364Z,97542.50
2018-12-19T00:52:00.346Z,97544.18
2018-12-19T00:55:07.237Z,97546.30
2018-12-19T00:58:12.852Z,97542.06
2018-12-19T01:01:19.280Z,97533.66
2018-12-19T01:04:25.226Z,97534.48
2018-12-19T01:07:31.099Z,97537.00
2018-12-19T01:10:37.827Z,97540.39
2018-12-19T01:13:43.698Z,97547.97
2018-12-19T01:16:49.307Z,97551.77
2018-12-19T01:19:55.192Z,97546.70
2018-12-19T01:23:01.168Z,97550.50
2018-12-19T01:26:06.759Z,97548.38
2018-12-19T01:29:12.671Z,97561.88
2018-12-19T01:32:18.272Z,97571.55
2018-12-19T01:35:24.164Z,97574.08
2018-12-19T01:38:29.759Z,97568.20
2018-12-19T01:41:35.702Z,97574.94
2018-12-19T01:44:41.760Z,97578.72
2018-12-19T01:47:47.559Z,97576.62
2018-12-19T01:50:53.139Z,97583.77
2018-12-19T01:53:59.005Z,97588.40
2018-12-19T01:57:04.908Z,97584.99
2018-12-19T02:00:11.312Z,97591.31
2018-12-19T02:03:16.879Z,97578.28
2018-12-19T02:06:22.980Z,97578.30
2018-12-19T02:09:29.078Z,97585.39
2018-12-19T02:12:35.945Z,97581.58
2018-12-19T02:15:41.905Z,97576.48
2018-12-19T02:18:48.295Z,97574.45
2018-12-19T02:21:53.872Z,97562.64
2018-12-19T02:24:59.506Z,97566.41
2018-12-19T02:28:05.304Z,97570.64
2018-12-19T02:31:10.945Z,97563.42
2018-12-19T02:34:17.169Z,97570.47
2018-12-19T02:37:23.116Z,97573.25
2018-12-19T02:40:29.333Z,97567.93
2018-12-19T02:43:37.990Z,97569.37
2018-12-19T02:46:45.777Z,97562.30
2018-12-19T02:49:53.151Z,97558.17
2018-12-19T02:52:59.152Z,97554.73
2018-12-19T02:56:05.052Z,97556.98
2018-12-19T02:59:10.892Z,97557.82
2018-12-19T03:02:16.524Z,97554.05
2018-12-19T03:05:22.396Z,97546.98
2018-12-19T03:08:28.019Z,97539.39
2018-12-19T03:11:34.055Z,97536.45
2018-12-19T03:14:40.120Z,97516.28
2018-12-19T03:17:47.746Z,97506.61
2018-12-19T03:20:53.664Z,97507.91
2018-12-19T03:23:59.548Z,97504.12
2018-12-19T03:27:06.404Z,97491.93
2018-12-19T03:30:12.266Z,97479.72
2018-12-19T03:33:18.276Z,97475.51
2018-12-19T03:36:23.972Z,97476.37
2018-12-19T03:39:36.219Z,97458.69
2018-12-19T03:42:42.117Z,97459.95
2018-12-19T03:45:48.420Z,97462.05
2018-12-19T03:49:19.701Z,97458.70
2018-12-19T03:52:31.752Z,97457.00
2018-12-19T03:55:37.523Z,97450.68
2018-12-19T03:58:43.250Z,97450.27
2018-12-19T04:01:48.995Z,97433.41
2018-12-19T04:04:54.589Z,97434.70
2018-12-19T04:08:00.215Z,97436.79
2018-12-19T04:11:06.106Z,97440.58
2018-12-19T04:14:11.687Z,97442.70
2018-12-19T04:17:18.287Z,97433.44
2018-12-19T04:20:24.225Z,97438.49
2018-12-19T04:23:30.118Z,97431.73
2018-12-19T04:26:35.973Z,97436.79
2018-12-19T04:29:42.308Z,97433.44
2018-12-19T04:32:49.081Z,97434.70
2018-12-19T04:35:55.340Z,97435.52
2018-12-19T04:39:00.978Z,97443.10
2018-12-19T04:42:06.742Z,97439.76
2018-12-19T04:45:12.314Z,97438.05
2018-12-19T04:48:18.192Z,97439.30
2018-12-19T04:51:23.746Z,97441.43
2018-12-19T04:54:29.639Z,97443.09
2018-12-19T04:57:35.499Z,97441.43
2018-12-19T05:00:41.264Z,97445.22
2018-12-19T05:03:47.921Z,97449.83
2018-12-19T05:06:59.329Z,97448.60
2018-12-19T05:10:12.167Z,97460.36
2018-12-19T05:13:13.791Z,97467.93
2018-12-19T05:16:19.677Z,97471.73
2018-12-19T05:19:32.796Z,97464.57
2018-12-19T05:22:38.754Z,97465.39
2018-12-19T05:25:44.467Z,97464.11
2018-12-19T05:28:50.206Z,97467.88
2018-12-19T05:31:55.999Z,97470.34
2018-12-19T05:35:01.575Z,97467.82
2018-12-19T05:38:07.459Z,97465.31
2018-12-19T05:41:13.376Z,97475.86
2018-12-19T05:44:19.201Z,97467.52
2018-12-19T05:47:25.348Z,97470.37
2018-12-19T05:50:31.792Z,97485.07
2018-12-19T05:53:37.672Z,97488.03
2018-12-19T05:56:44.056Z,97496.42
2018-12-19T05:59:49.697Z,97497.28
2018-12-19T06:02:55.597Z,97486.80
2018-12-19T06:06:01.638Z,97491.78
2018-12-19T06:09:09.043Z,97488.86
2018-12-19T06:12:15.089Z,97476.25
2018-12-19T06:15:20.724Z,97470.38
2018-12-19T06:18:26.621Z,97472.08
2018-12-19T06:21:32.788Z,97467.06
2018-12-19T06:24:38.765Z,97459.90
2018-12-19T06:27:44.874Z,97447.30
2018-12-19T06:30:50.432Z,97442.66
2018-12-19T06:33:56.967Z,97431.33
2018-12-19T06:37:02.867Z,97433.84
2018-12-19T06:40:10.044Z,97440.58
2018-12-19T06:43:15.627Z,97439.31
2018-12-19T06:46:21.379Z,97433.85
2018-12-19T06:49:26.968Z,97432.59
2018-12-19T06:52:35.817Z,97440.17
2018-12-19T06:55:41.649Z,97431.73
2018-12-19T06:58:47.647Z,97438.91
2018-12-19T07:01:53.233Z,97447.75
2018-12-19T07:04:58.870Z,97444.36
2018-12-19T07:08:04.728Z,97445.22
2018-12-19T07:11:10.338Z,97448.59
2018-12-19T07:14:16.286Z,97443.95
2018-12-19T07:17:21.921Z,97450.27
2018-12-19T07:20:27.793Z,97458.26
2018-12-19T07:23:34.120Z,97459.53
2018-12-19T07:26:40.012Z,97460.78
2018-12-19T07:29:46.147Z,97465.43
2018-12-19T07:32:52.013Z,97467.10
2018-12-19T07:35:57.892Z,97457.00
2018-12-19T07:39:05.539Z,97456.58
2018-12-19T07:42:11.412Z,97449.83
2018-12-19T07:45:17.282Z,97449.83
2018-12-19T07:48:23.559Z,97455.73
2018-12-19T07:51:29.484Z,97480.14
2018-12-19T07:54:35.397Z,97475.95
2018-12-19T07:57:41.253Z,97470.05
2018-12-19T08:00:47.561Z,97457.00
2018-12-19T08:03:53.432Z,97468.77
2018-12-19T08:06:59.325Z,97469.62
2018-12-19T08:10:07.429Z,97473.00
2018-12-19T08:13:13.131Z,97486.91
2018-12-19T08:16:18.988Z,97501.22
2018-12-19T08:19:24.917Z,97511.73
2018-12-19T08:22:30.498Z,97516.80
2018-12-19T08:25:36.593Z,97520.58
2018-12-19T08:28:42.911Z,97523.11
2018-12-19T08:31:51.680Z,97527.34
2018-12-19T08:34:57.635Z,97525.63
2018-12-19T08:38:03.537Z,97519.31
2018-12-19T08:41:09.200Z,97515.52
2018-12-19T08:44:15.105Z,97515.93
2018-12-19T08:47:20.733Z,97523.09
2018-12-19T08:50:26.634Z,97515.91
2018-12-19T08:53:32.271Z,97517.17
2018-12-19T08:56:38.262Z,97518.41
2018-12-19T08:59:43.848Z,97517.14
2018-12-19T09:02:49.755Z,97519.24
2018-12-19T09:05:55.618Z,97519.64
2018-12-19T09:09:01.496Z,97530.04
2018-12-19T09:12:08.235Z,97531.74
2018-12-19T09:15:16.139Z,97527.91
2018-12-19T09:18:23.485Z,97540.22
2018-12-19T09:21:29.373Z,97538.56
2018-12-19T09:24:35.665Z,97542.77
2018-12-19T09:27:41.619Z,97534.80
2018-12-19T09:30:47.823Z,97541.91
2018-12-19T09:33:53.809Z,97540.56
2018-12-19T09:37:00.144Z,97536.77
2018-12-19T09:40:07.025Z,97536.77
2018-12-19T09:43:13.857Z,97542.20
2018-12-19T09:46:19.754Z,97532.54
2018-12-19T09:49:32.343Z,97535.00
2018-12-19T09:52:38.243Z,97529.12
2018-12-19T09:55:44.099Z,97518.13
2018-12-19T09:58:50.011Z,97513.05
2018-12-19T10:01:56.957Z,97514.28
2018-12-19T10:05:02.609Z,97513.39
2018-12-19T10:08:08.477Z,97508.73
2018-12-19T10:11:18.743Z,97501.48
2018-12-19T10:14:22.702Z,97501.74
2018-12-19T10:17:29.310Z,97503.03
2018-12-19T10:20:34.895Z,97490.80
2018-12-19T10:23:43.399Z,97500.92
2018-12-19T10:26:49.563Z,97498.92
2018-12-19T10:29:56.458Z,97498.91
2018-12-19T10:33:02.064Z,97489.06
2018-12-19T10:36:08.007Z,97487.44
2018-12-19T10:39:17.664Z,97481.30
2018-12-19T10:42:23.995Z,97482.80
2018-12-19T10:45:29.978Z,97479.47
2018-12-19T10:48:36.245Z,97481.61
2018-12-19T10:51:41.857Z,97492.13
2018-12-19T10:54:48.226Z,97483.83
2018-12-19T10:57:54.109Z,97477.47
2018-12-19T11:01:01.827Z,97473.25
2018-12-19T11:04:07.469Z,97464.88
2018-12-19T11:07:13.515Z,97461.05
2018-12-19T11:10:19.110Z,97465.98
2018-12-19T11:13:24.728Z,97464.08
2018-12-19T11:16:30.752Z,97462.93
2018-12-19T11:19:36.665Z,97456.52
2018-12-19T11:22:42.271Z,97455.22
2018-12-19T11:25:48.818Z,97453.63
2018-12-19T11:28:54.768Z,97454.81
2018-12-19T11:32:01.418Z,97450.52
2018-12-19T11:35:08.228Z,97440.91
2018-12-19T11:38:13.872Z,97450.78
2018-12-19T11:41:19.759Z,97449.47
2018-12-19T11:44:25.408Z,97445.73
2018-12-19T11:47:31.481Z,97449.17
2018-12-19T11:50:37.574Z,97448.16
2018-12-19T11:53:43.481Z,97440.55
2018-12-19T11:56:49.467Z,97440.06
2018-12-19T11:59:55.365Z,97443.50
2018-12-19T12:03:01.279Z,97440.06
2018-12-19T12:06:07.619Z,97434.64
2018-12-19T12:09:13.556Z,97430.36
2018-12-19T12:12:19.192Z,97429.86
2018-12-19T12:15:25.119Z,97422.67
2018-12-19T12:18:30.719Z,97421.02
2018-12-19T12:21:36.713Z,97414.59
2018-12-19T12:24:42.631Z,97424.23
2018-12-19T12:27:48.795Z,97422.66
2018-12-19T12:30:54.399Z,97420.64
2018-12-19T12:34:01.151Z,97421.09
2018-12-19T12:37:07.018Z,97426.18
2018-12-19T12:40:13.442Z,97416.86
2018-12-19T12:43:20.390Z,97414.19
2018-12-19T12:46:26.480Z,97410.47
2018-12-19T12:49:32.385Z,97421.12
2018-12-19T12:52:38.767Z,97422.42
2018-12-19T12:55:44.720Z,97417.03
2018-12-19T12:58:50.663Z,97421.31
2018-12-19T13:01:56.532Z,97419.70
2018-12-19T13:05:02.948Z,97419.41
2018-12-19T13:08:08.554Z,97427.48
2018-12-19T13:11:14.920Z,97422.45
2018-12-19T13:14:21.392Z,97419.58
2018-12-19T13:17:27.454Z,97423.03
2018-12-19T13:20:33.059Z,97423.95
2018-12-19T13:23:38.684Z,97424.80
2018-12-19T13:26:45.241Z,97423.56
2018-12-19T13:29:51.134Z,97423.64
2018-12-19T13:32:57.027Z,97422.39
2018-12-19T13:36:03.662Z,97424.95
2018-12-19T13:39:10.079Z,97424.55
2018-12-19T13:42:15.777Z,97425.81
2018-12-19T13:45:21.453Z,97421.16
2018-12-19T13:48:27.350Z,97424.99
2018-12-19T13:51:33.216Z,97416.55
2018-12-19T13:54:38.858Z,97418.70
2018-12-19T13:57:44.807Z,97408.59
2018-12-19T14:00:50.889Z,97414.90
2018-12-19T14:03:57.091Z,97404.78
2018-12-19T14:07:03.320Z,97403.89
2018-12-19T14:10:09.875Z,97405.23
2018-12-19T14:13:16.039Z,97396.79
2018-12-19T14:16:21.666Z,97396.33
2018-12-19T14:19:27.750Z,97402.70
2018-12-19T14:22:33.764Z,97395.58
2018-12-19T14:25:39.393Z,97395.56
2018-12-19T14:28:45.862Z,97397.26
2018-12-19T14:31:51.976Z,97393.06
2018-12-19T14:34:57.695Z,97386.72
2018-12-19T14:38:03.820Z,97390.08
2018-12-19T14:41:09.776Z,97385.02
2018-12-19T14:44:15.626Z,97384.59
2018-12-19T14:47:21.362Z,97387.95
2018-12-19T14:50:26.974Z,97390.06
2018-12-19T14:53:32.582Z,97386.72
2018-12-19T14:56:38.589Z,97383.75
2018-12-19T14:59:44.348Z,97382.13
2018-12-19T15:02:50.288Z,97387.59
2018-12-19T15:05:55.974Z,97386.77
2018-12-19T15:09:02.343Z,97389.28
2018-12-19T15:12:08.289Z,97387.19
2018-12-19T15:15:14.692Z,97390.56
2018-12-19T15:18:20.285Z,97382.52
2018-12-19T15:21:26.359Z,97382.13
2018-12-19T15:24:31.944Z,97382.97
2018-12-19T15:27:37.673Z,97370.75
2018-12-19T15:30:43.620Z,97373.70
2018-12-19T15:33:49.556Z,97373.30
2018-12-19T15:36:56.213Z,97366.98
2018-12-19T15:40:02.254Z,97365.70
2018-12-19T15:43:07.946Z,97365.67
2018-12-19T15:46:13.631Z,97361.44
2018-12-19T15:49:19.691Z,97362.68
2018-12-19T15:52:25.755Z,97359.71
2018-12-19T15:55:31.630Z,97358.86
2018-12-19T15:58:37.636Z,97359.23
2018-12-19T16:01:43.516Z,97363.44
2018-12-19T16:04:49.728Z,97354.50
2018-12-19T16:07:55.739Z,97352.05
2018-12-19T16:11:01.483Z,97354.58
2018-12-19T16:14:07.104Z,97350.38
2018-12-19T16:17:13.015Z,97350.78
2018-12-19T16:20:18.612Z,97343.57
2018-12-19T16:23:31.679Z,97339.36
2018-12-19T16:26:38.377Z,97331.78
2018-12-19T16:29:43.993Z,97338.98
2018-12-19T16:32:49.987Z,97335.15
2018-12-19T16:35:57.001Z,97332.15
2018-12-19T16:39:02.889Z,97331.33
2018-12-19T16:42:09.849Z,97319.48
2018-12-19T16:45:16.024Z,97323.28
2018-12-19T16:48:23.037Z,97321.59
2018-12-19T16:51:28.931Z,97318.20
2018-12-19T16:54:35.015Z,97313.09
2018-12-19T16:57:40.595Z,97312.66
2018-12-19T17:00:47.145Z,97307.50
2018-12-19T17:03:54.198Z,97305.36
2018-12-19T17:07:00.553Z,97308.74
2018-12-19T17:10:08.769Z,97302.80
2018-12-19T17:13:14.741Z,97307.89
2018-12-19T17:16:20.644Z,97306.98
2018-12-19T17:19:26.264Z,97307.58
2018-12-19T17:22:32.048Z,97306.28
2018-12-19T17:25:38.423Z,97303.31
2018-12-19T17:28:45.830Z,97307.44
2018-12-19T17:31:51.736Z,97304.52
2018-12-19T17:34:57.619Z,97302.85
2018-12-19T17:38:04.871Z,97310.92
2018-12-19T17:41:11.318Z,97311.33
2018-12-19T17:44:17.426Z,97319.78
2018-12-19T17:47:23.043Z,97325.20
2018-12-19T17:50:28.716Z,97323.48
2018-12-19T17:53:34.695Z,97317.63
2018-12-19T17:56:40.658Z,97319.28
2018-12-19T17:59:48.210Z,97317.59
2018-12-19T18:02:54.189Z,97316.72
2018-12-19T18:05:59.988Z,97321.43
2018-12-19T18:09:08.699Z,97320.61
2018-12-19T18:12:14.719Z,97321.00
2018-12-19T18:15:20.548Z,97315.53
2018-12-19T18:18:26.538Z,97320.98
2018-12-19T18:21:34.371Z,97321.38
2018-12-19T18:24:41.700Z,97317.97
2018-12-19T18:27:48.831Z,97327.92
2018-12-19T18:30:54.632Z,97330.56
2018-12-19T18:34:00.684Z,97333.13
2018-12-19T18:37:06.613Z,97327.66
2018-12-19T18:40:12.521Z,97327.73
2018-12-19T18:43:18.711Z,97327.16
2018-12-19T18:46:25.785Z,97328.10
2018-12-19T18:49:32.473Z,97328.04
2018-12-19T18:52:39.838Z,97341.87
2018-12-19T18:55:46.251Z,97338.34
2018-12-19T18:58:52.675Z,97345.69
2018-12-19T19:02:00.239Z,97348.55
2018-12-19T19:05:07.365Z,97353.17
2018-12-19T19:08:13.748Z,97358.36
2018-12-19T19:11:20.124Z,97350.28
2018-12-19T19:14:26.054Z,97347.64
2018-12-19T19:17:31.958Z,97359.08
2018-12-19T19:20:38.278Z,97352.80
2018-12-19T19:23:43.910Z,97353.08
2018-12-19T19:26:50.201Z,97348.45
2018-12-19T19:29:56.177Z,97349.90
2018-12-19T19:33:02.070Z,97347.26
2018-12-19T19:36:09.652Z,97350.34
2018-12-19T19:39:15.536Z,97350.84
2018-12-19T19:42:21.128Z,97347.89
2018-12-19T19:45:27.144Z,97348.20
2018-12-19T19:48:33.455Z,97353.45
2018-12-19T19:51:39.741Z,97352.47
2018-12-19T19:54:45.692Z,97351.27
2018-12-19T19:57:51.313Z,97355.23
2018-12-19T20:00:57.376Z,97355.30
2018-12-19T20:04:03.222Z,97363.83
2018-12-19T20:07:09.225Z,97365.95
2018-12-19T20:10:15.440Z,97369.37
2018-12-19T20:13:21.843Z,97359.65
2018-12-19T20:16:27.497Z,97359.23
2018-12-19T20:19:33.920Z,97360.14
2018-12-19T20:22:39.821Z,97360.56
2018-12-19T20:25:45.729Z,97359.31
2018-12-19T20:28:51.660Z,97358.89
2018-12-19T20:31:58.120Z,97353.88
2018-12-19T20:35:04.920Z,97355.57
2018-12-19T20:38:10.519Z,97348.40
2018-12-19T20:41:16.135Z,97346.36
2018-12-19T20:44:22.155Z,97341.68
2018-12-19T20:47:27.736Z,97337.86
2018-12-19T20:50:33.868Z,97336.58
2018-12-19T20:53:41.175Z,97344.23
2018-12-19T20:56:47.163Z,97340.04
2018-12-19T20:59:53.135Z,97335.38
2018-12-19T21:02:59.240Z,97334.58
2018-12-19T21:06:05.210Z,97331.20
2018-12-19T21:09:12.307Z,97318.58
2018-12-19T21:12:20.144Z,97319.88
2018-12-19T21:15:26.225Z,97316.49
2018-12-19T21:18:37.454Z,97324.50
2018-12-19T21:21:43.628Z,97317.76
2018-12-19T21:24:49.608Z,97321.55
2018-12-19T21:27:55.945Z,97317.34
2018-12-19T21:31:01.828Z,97320.72
2018-12-19T21:34:07.854Z,97322.34
2018-12-19T21:37:13.817Z,97324.93
2018-12-19T21:40:20.077Z,97318.61
2018-12-19T21:43:25.749Z,97313.52
2018-12-19T21:46:31.383Z,97321.96
2018-12-19T21:49:37.215Z,97326.56
2018-12-19T21:52:43.392Z,97322.02
2018-12-19T21:55:49.424Z,97319.50
2018-12-19T21:58:55.858Z,97317.75
2018-12-19T22:02:01.450Z,97317.37
2018-12-19T22:05:08.099Z,97320.70
2018-12-19T22:08:16.040Z,97321.98
2018-12-19T22:11:22.389Z,97326.26
2018-12-19T22:14:28.892Z,97325.84
2018-12-19T22:17:39.679Z,97327.11
2018-12-19T22:20:46.821Z,97326.70
2018-12-19T22:23:52.743Z,97324.20
2018-12-19T22:26:58.665Z,97317.44
2018-12-19T22:30:07.341Z,97317.89
2018-12-19T22:33:13.305Z,97306.86
2018-12-19T22:36:19.183Z,97307.27
2018-12-19T22:39:25.139Z,97308.91
2018-12-19T22:42:30.940Z,97305.97
2018-12-19T22:45:43.098Z,97293.36
2018-12-19T22:49:16.096Z,97292.50
2018-12-19T22:52:22.074Z,97291.11
2018-12-19T22:55:28.619Z,97295.39
2018-12-19T22:58:34.655Z,97293.27
2018-12-19T23:01:45.554Z,97293.75
2018-12-19T23:04:51.344Z,97286.61
2018-12-19T23:07:57.096Z,97288.70
2018-12-19T23:11:02.981Z,97295.05
2018-12-19T23:14:15.151Z,97292.98
2018-12-19T23:17:27.197Z,97288.31
2018-12-19T23:20:38.642Z,97283.28
2018-12-19T23:23:50.907Z,97286.27
2018-12-19T23:26:59.369Z,97283.23
2018-12-19T23:30:08.967Z,97281.60
2018-12-19T23:33:15.437Z,97287.43
2018-12-19T23:36:23.167Z,97289.08
2018-12-19T23:39:29.435Z,97287.82
2018-12-19T23:42:35.345Z,97286.99
2018-12-19T23:45:41.288Z,97284.06
2018-12-19T23:48:47.700Z,97286.99
2018-12-19T23:51:53.353Z,97284.45
2018-12-19T23:54:59.649Z,97282.31
